CCA1269 ZBAA-ZLYA
Flight info
| Callsign | CCA1269 |
|---|---|
| Flight time | N/A |
| Altitude | 23600 |
| Route | BOTPU W47 P531 |
| Aircraft | B738/M-SDE2E3FGHIRWXY/LB1 |
Departure
| Time | N/A |
|---|---|
| Airport | Beijing Capital International Airport (ZBAA) |
Arrival
| Time | 2026-05-06 06:07 |
|---|---|
| Airport | Yan'an Nanniwan Airport (ZLYA) |
| Time | Latitude | Longitude | Altitude | Speed | Heading |
|---|---|---|---|---|---|
| 2026-05-06 05:07 | 40.14490 | 112.38934 | 38159 ft | 353 kts | 251° |
| 2026-05-06 05:07 | 40.13662 | 112.35970 | 38159 ft | 353 kts | 249° |
| 2026-05-06 05:08 | 40.11940 | 112.30001 | 38161 ft | 352 kts | 249° |
| 2026-05-06 05:08 | 40.10264 | 112.24119 | 38163 ft | 352 kts | 249° |
| 2026-05-06 05:09 | 40.08596 | 112.18188 | 38156 ft | 353 kts | 250° |
| 2026-05-06 05:09 | 40.06917 | 112.12189 | 38173 ft | 353 kts | 249° |
| 2026-05-06 05:10 | 40.05238 | 112.06214 | 38179 ft | 353 kts | 250° |
| 2026-05-06 05:10 | 40.03551 | 112.00212 | 38178 ft | 353 kts | 249° |
| 2026-05-06 05:11 | 40.01892 | 111.94334 | 38183 ft | 352 kts | 249° |
| 2026-05-06 05:11 | 40.00171 | 111.88301 | 38188 ft | 354 kts | 248° |
| 2026-05-06 05:12 | 39.97774 | 111.82818 | 38185 ft | 358 kts | 233° |
| 2026-05-06 05:12 | 39.94076 | 111.78346 | 38185 ft | 365 kts | 225° |
| 2026-05-06 05:13 | 39.90232 | 111.74277 | 38179 ft | 363 kts | 225° |
| 2026-05-06 05:13 | 39.86288 | 111.70088 | 38179 ft | 364 kts | 225° |
| 2026-05-06 05:14 | 39.82409 | 111.65924 | 38181 ft | 366 kts | 226° |
| 2026-05-06 05:14 | 39.78490 | 111.61704 | 38181 ft | 366 kts | 226° |
| 2026-05-06 05:15 | 39.74584 | 111.57487 | 38181 ft | 367 kts | 225° |
| 2026-05-06 05:15 | 39.70650 | 111.53255 | 38173 ft | 369 kts | 225° |
| 2026-05-06 05:16 | 39.66743 | 111.49057 | 38168 ft | 368 kts | 225° |
| 2026-05-06 05:16 | 39.62792 | 111.44817 | 38167 ft | 369 kts | 225° |
| 2026-05-06 05:17 | 39.58869 | 111.40613 | 38162 ft | 371 kts | 225° |
| 2026-05-06 05:17 | 39.54861 | 111.36327 | 38159 ft | 371 kts | 225° |
| 2026-05-06 05:18 | 39.50903 | 111.32100 | 38155 ft | 374 kts | 225° |
| 2026-05-06 05:18 | 39.46875 | 111.27806 | 38152 ft | 372 kts | 225° |
| 2026-05-06 05:19 | 39.42908 | 111.23585 | 38146 ft | 373 kts | 225° |
| 2026-05-06 05:19 | 39.38894 | 111.19314 | 38148 ft | 374 kts | 225° |
| 2026-05-06 05:20 | 39.34886 | 111.15055 | 38143 ft | 377 kts | 225° |
| 2026-05-06 05:20 | 39.30833 | 111.10764 | 38129 ft | 373 kts | 224° |
| 2026-05-06 05:21 | 39.26920 | 111.06620 | 38130 ft | 377 kts | 225° |
| 2026-05-06 05:21 | 39.22831 | 111.02258 | 38126 ft | 377 kts | 226° |
| 2026-05-06 05:22 | 39.19431 | 110.97231 | 38123 ft | 370 kts | 240° |
| 2026-05-06 05:22 | 39.17285 | 110.91240 | 38127 ft | 369 kts | 251° |
| 2026-05-06 05:23 | 39.16316 | 110.84811 | 38127 ft | 370 kts | 264° |
| 2026-05-06 05:23 | 39.16614 | 110.74769 | 38134 ft | 374 kts | 270° |
| 2026-05-06 05:24 | 39.16992 | 110.68130 | 38138 ft | 375 kts | 270° |
| 2026-05-06 05:24 | 39.17344 | 110.61388 | 38146 ft | 374 kts | 269° |
| 2026-05-06 05:25 | 39.17662 | 110.54749 | 38152 ft | 374 kts | 269° |
| 2026-05-06 05:25 | 39.17973 | 110.48054 | 38157 ft | 374 kts | 270° |
| 2026-05-06 05:26 | 39.18275 | 110.41421 | 38159 ft | 375 kts | 269° |
| 2026-05-06 05:26 | 39.18571 | 110.34753 | 38155 ft | 375 kts | 269° |
| 2026-05-06 05:27 | 39.18862 | 110.28060 | 38169 ft | 375 kts | 269° |
| 2026-05-06 05:27 | 39.19150 | 110.21468 | 38174 ft | 375 kts | 268° |
| 2026-05-06 05:28 | 39.19435 | 110.14790 | 38172 ft | 373 kts | 269° |
| 2026-05-06 05:28 | 39.19753 | 110.08122 | 38174 ft | 375 kts | 269° |
| 2026-05-06 05:29 | 39.20080 | 110.01438 | 38180 ft | 376 kts | 269° |
| 2026-05-06 05:29 | 39.20405 | 109.94722 | 38194 ft | 374 kts | 269° |
| 2026-05-06 05:30 | 39.20720 | 109.88053 | 38193 ft | 376 kts | 269° |
| 2026-05-06 05:30 | 39.21031 | 109.81314 | 38198 ft | 376 kts | 269° |
| 2026-05-06 05:31 | 39.21339 | 109.74625 | 38194 ft | 377 kts | 269° |
| 2026-05-06 05:31 | 39.21399 | 109.67871 | 38200 ft | 373 kts | 261° |
| 2026-05-06 05:32 | 39.20114 | 109.61502 | 38213 ft | 371 kts | 248° |
| 2026-05-06 05:32 | 39.17638 | 109.55661 | 38208 ft | 374 kts | 237° |
| 2026-05-06 05:33 | 39.13986 | 109.50860 | 38214 ft | 382 kts | 223° |
| 2026-05-06 05:33 | 39.09409 | 109.47292 | 38207 ft | 393 kts | 210° |
| 2026-05-06 05:34 | 39.04105 | 109.45264 | 38208 ft | 406 kts | 201° |
| 2026-05-06 05:34 | 38.98535 | 109.43894 | 38204 ft | 406 kts | 199° |
| 2026-05-06 05:35 | 38.92971 | 109.42612 | 38203 ft | 407 kts | 199° |
| 2026-05-06 05:35 | 38.87396 | 109.41295 | 38210 ft | 408 kts | 199° |
| 2026-05-06 05:36 | 38.81818 | 109.39943 | 38208 ft | 408 kts | 199° |
| 2026-05-06 05:36 | 38.76280 | 109.38593 | 38203 ft | 407 kts | 200° |
| 2026-05-06 05:37 | 38.70738 | 109.37225 | 38206 ft | 409 kts | 199° |
| 2026-05-06 05:37 | 38.65134 | 109.35844 | 38200 ft | 409 kts | 199° |
| 2026-05-06 05:38 | 38.59573 | 109.34477 | 38200 ft | 407 kts | 199° |
| 2026-05-06 05:38 | 38.53969 | 109.33090 | 38199 ft | 412 kts | 199° |
| 2026-05-06 05:39 | 38.48457 | 109.31735 | 38195 ft | 410 kts | 199° |
| 2026-05-06 05:39 | 38.42799 | 109.30341 | 38202 ft | 413 kts | 199° |
| 2026-05-06 05:40 | 38.37243 | 109.29119 | 38195 ft | 412 kts | 199° |
| 2026-05-06 05:40 | 38.34616 | 109.28001 | 38201 ft | 393 kts | 215° |
| 2026-05-06 05:40 | 38.32121 | 109.26477 | 38208 ft | 402 kts | 206° |
| 2026-05-06 05:41 | 38.29371 | 109.25736 | 38214 ft | 418 kts | 194° |
| 2026-05-06 05:41 | 38.26419 | 109.25523 | 38196 ft | 425 kts | 189° |
| 2026-05-06 05:41 | 38.20514 | 109.25581 | 38193 ft | 424 kts | 187° |
| 2026-05-06 05:42 | 38.14621 | 109.25603 | 38188 ft | 425 kts | 189° |
| 2026-05-06 05:42 | 38.08730 | 109.25475 | 38189 ft | 422 kts | 190° |
| 2026-05-06 05:43 | 38.02851 | 109.25253 | 38190 ft | 424 kts | 191° |
| 2026-05-06 05:43 | 37.96972 | 109.24999 | 38183 ft | 422 kts | 191° |
| 2026-05-06 05:44 | 37.91121 | 109.24734 | 38187 ft | 424 kts | 191° |
| 2026-05-06 05:44 | 37.85215 | 109.24468 | 38179 ft | 423 kts | 190° |
| 2026-05-06 05:45 | 37.79338 | 109.24204 | 38179 ft | 425 kts | 191° |
| 2026-05-06 05:45 | 37.73439 | 109.23941 | 38179 ft | 425 kts | 191° |
| 2026-05-06 05:46 | 37.67567 | 109.23682 | 38100 ft | 420 kts | 190° |
| 2026-05-06 05:46 | 37.64671 | 109.23560 | 37703 ft | 414 kts | 190° |
| 2026-05-06 05:46 | 37.61791 | 109.23438 | 37185 ft | 410 kts | 190° |
| 2026-05-06 05:47 | 37.58995 | 109.23317 | 36626 ft | 407 kts | 190° |
| 2026-05-06 05:47 | 37.56153 | 109.23192 | 36038 ft | 404 kts | 190° |
| 2026-05-06 05:47 | 37.53375 | 109.23068 | 35406 ft | 403 kts | 190° |
| 2026-05-06 05:47 | 37.50557 | 109.22938 | 34742 ft | 402 kts | 190° |
| 2026-05-06 05:48 | 37.47807 | 109.22811 | 34081 ft | 401 kts | 190° |
| 2026-05-06 05:48 | 37.45067 | 109.22688 | 33407 ft | 400 kts | 190° |
| 2026-05-06 05:48 | 37.42298 | 109.22560 | 32770 ft | 399 kts | 190° |
| 2026-05-06 05:48 | 37.39523 | 109.22433 | 32071 ft | 400 kts | 189° |
| 2026-05-06 05:49 | 37.36752 | 109.22307 | 31352 ft | 402 kts | 189° |
| 2026-05-06 05:49 | 37.33984 | 109.22179 | 30615 ft | 406 kts | 189° |
| 2026-05-06 05:49 | 37.31166 | 109.22047 | 29847 ft | 409 kts | 189° |
| 2026-05-06 05:49 | 37.28274 | 109.21916 | 29038 ft | 412 kts | 189° |
| 2026-05-06 05:50 | 37.25453 | 109.21790 | 28259 ft | 416 kts | 188° |
| 2026-05-06 05:50 | 37.22587 | 109.21662 | 27490 ft | 417 kts | 188° |
| 2026-05-06 05:50 | 37.19649 | 109.21533 | 26928 ft | 424 kts | 188° |
| 2026-05-06 05:50 | 37.16652 | 109.21391 | 26307 ft | 437 kts | 188° |
| 2026-05-06 05:51 | 37.13623 | 109.21252 | 25632 ft | 437 kts | 187° |
| 2026-05-06 05:51 | 37.10595 | 109.21121 | 24951 ft | 435 kts | 187° |
| 2026-05-06 05:51 | 37.07589 | 109.20992 | 24288 ft | 432 kts | 187° |
| 2026-05-06 05:51 | 37.04618 | 109.20866 | 23621 ft | 430 kts | 187° |
| 2026-05-06 05:52 | 37.01669 | 109.20740 | 22957 ft | 428 kts | 187° |
| 2026-05-06 05:52 | 36.98700 | 109.20613 | 22285 ft | 426 kts | 187° |
| 2026-05-06 05:52 | 36.95750 | 109.20486 | 21618 ft | 424 kts | 186° |
| 2026-05-06 05:52 | 36.92841 | 109.20359 | 20950 ft | 422 kts | 186° |
| 2026-05-06 05:53 | 36.89932 | 109.20234 | 20270 ft | 421 kts | 186° |
| 2026-05-06 05:53 | 36.87064 | 109.20197 | 19525 ft | 422 kts | 182° |
| 2026-05-06 05:53 | 36.84213 | 109.20425 | 18993 ft | 418 kts | 178° |
| 2026-05-06 05:53 | 36.81278 | 109.20873 | 18555 ft | 410 kts | 175° |
| 2026-05-06 05:54 | 36.78521 | 109.21403 | 18137 ft | 402 kts | 174° |
| 2026-05-06 05:54 | 36.75798 | 109.21967 | 17514 ft | 401 kts | 173° |
| 2026-05-06 05:54 | 36.73078 | 109.22536 | 16879 ft | 395 kts | 173° |
| 2026-05-06 05:54 | 36.70819 | 109.23003 | 15938 ft | 394 kts | 172° |
| 2026-05-06 05:55 | 36.69521 | 109.23267 | 15420 ft | 393 kts | 172° |
| 2026-05-06 05:55 | 36.66903 | 109.23791 | 14572 ft | 385 kts | 172° |
| 2026-05-06 05:55 | 36.64304 | 109.24300 | 14038 ft | 368 kts | 171° |
| 2026-05-06 05:55 | 36.61787 | 109.24786 | 13486 ft | 371 kts | 170° |
| 2026-05-06 05:56 | 36.59175 | 109.25288 | 12873 ft | 387 kts | 170° |
| 2026-05-06 05:56 | 36.56553 | 109.25793 | 12237 ft | 387 kts | 171° |
| 2026-05-06 05:56 | 36.53940 | 109.26296 | 11586 ft | 375 kts | 171° |
| 2026-05-06 05:56 | 36.51402 | 109.26781 | 11073 ft | 359 kts | 170° |
| 2026-05-06 05:57 | 36.48990 | 109.27241 | 10794 ft | 340 kts | 170° |
| 2026-05-06 05:57 | 36.46694 | 109.27679 | 10682 ft | 347 kts | 170° |
| 2026-05-06 05:57 | 36.45276 | 109.27950 | 10583 ft | 347 kts | 170° |
| 2026-05-06 05:57 | 36.43121 | 109.28362 | 10437 ft | 331 kts | 170° |
| 2026-05-06 05:58 | 36.40915 | 109.28783 | 10313 ft | 317 kts | 170° |
| 2026-05-06 05:58 | 36.38744 | 109.29198 | 10060 ft | 311 kts | 170° |
| 2026-05-06 05:58 | 36.36637 | 109.29602 | 9634 ft | 312 kts | 170° |
| 2026-05-06 05:58 | 36.34484 | 109.30014 | 9158 ft | 309 kts | 170° |
| 2026-05-06 05:59 | 36.32403 | 109.30410 | 8773 ft | 297 kts | 170° |
| 2026-05-06 05:59 | 36.30442 | 109.30780 | 8677 ft | 273 kts | 169° |
| 2026-05-06 05:59 | 36.28651 | 109.31274 | 8615 ft | 249 kts | 158° |
| 2026-05-06 05:59 | 36.27240 | 109.32266 | 8537 ft | 218 kts | 125° |
| 2026-05-06 06:00 | 36.26476 | 109.33772 | 8447 ft | 204 kts | 101° |
| 2026-05-06 06:00 | 36.26132 | 109.35432 | 8227 ft | 198 kts | 88° |
| 2026-05-06 06:00 | 36.26122 | 109.37069 | 8015 ft | 187 kts | 69° |
| 2026-05-06 06:00 | 36.26460 | 109.38581 | 7859 ft | 182 kts | 63° |
| 2026-05-06 06:01 | 36.26837 | 109.40066 | 7631 ft | 184 kts | 64° |
| 2026-05-06 06:01 | 36.27187 | 109.41583 | 7425 ft | 181 kts | 65° |
| 2026-05-06 06:01 | 36.27530 | 109.43105 | 7240 ft | 191 kts | 65° |
| 2026-05-06 06:01 | 36.27897 | 109.44698 | 7022 ft | 193 kts | 65° |
| 2026-05-06 06:02 | 36.28257 | 109.46276 | 6820 ft | 192 kts | 65° |
| 2026-05-06 06:02 | 36.28584 | 109.47717 | 6638 ft | 190 kts | 64° |
| 2026-05-06 06:02 | 36.28954 | 109.49299 | 6274 ft | 191 kts | 62° |
| 2026-05-06 06:02 | 36.29525 | 109.50654 | 6180 ft | 165 kts | 39° |
| 2026-05-06 06:03 | 36.30492 | 109.51418 | 6196 ft | 168 kts | 17° |
| 2026-05-06 06:03 | 36.31656 | 109.51632 | 6161 ft | 167 kts | 356° |
| 2026-05-06 06:03 | 36.32798 | 109.51413 | 6131 ft | 171 kts | 349° |
| 2026-05-06 06:03 | 36.33932 | 109.51097 | 6089 ft | 169 kts | 347° |
| 2026-05-06 06:04 | 36.35074 | 109.50728 | 6041 ft | 168 kts | 346° |
| 2026-05-06 06:04 | 36.36175 | 109.50364 | 5976 ft | 153 kts | 346° |
| 2026-05-06 06:04 | 36.37154 | 109.50030 | 5876 ft | 145 kts | 346° |
| 2026-05-06 06:04 | 36.38119 | 109.49713 | 5679 ft | 134 kts | 346° |
| 2026-05-06 06:05 | 36.39009 | 109.49421 | 5503 ft | 135 kts | 347° |
| 2026-05-06 06:05 | 36.39905 | 109.49110 | 5335 ft | 133 kts | 347° |
| 2026-05-06 06:05 | 36.40795 | 109.48818 | 5119 ft | 137 kts | 346° |
| 2026-05-06 06:05 | 36.41695 | 109.48520 | 4969 ft | 133 kts | 346° |
| 2026-05-06 06:06 | 36.42608 | 109.48210 | 4826 ft | 136 kts | 346° |
| 2026-05-06 06:06 | 36.43521 | 109.47911 | 4622 ft | 136 kts | 346° |
| 2026-05-06 06:06 | 36.44431 | 109.47612 | 4399 ft | 138 kts | 345° |
| 2026-05-06 06:06 | 36.45336 | 109.47286 | 4211 ft | 132 kts | 347° |
| 2026-05-06 06:07 | 36.46239 | 109.46994 | 4077 ft | 135 kts | 346° |
| 2026-05-06 06:07 | 36.47127 | 109.46695 | 3979 ft | 123 kts | 346° |
| 2026-05-06 06:07 | 36.47733 | 109.46497 | 3978 ft | 54 kts | 344° |
| 2026-05-06 06:07 | 36.47959 | 109.46433 | 3978 ft | 10 kts | 19° |
| 2026-05-06 06:08 | 36.47996 | 109.46510 | 3978 ft | 11 kts | 75° |
| 2026-05-06 06:08 | 36.48005 | 109.46586 | 3977 ft | 7 kts | 118° |
| 2026-05-06 06:08 | 36.47939 | 109.46622 | 3978 ft | 12 kts | 165° |
| 2026-05-06 06:08 | 36.47848 | 109.46653 | 3977 ft | 15 kts | 164° |
| 2026-05-06 06:09 | 36.47734 | 109.46693 | 3978 ft | 18 kts | 163° |
| 2026-05-06 06:09 | 36.47647 | 109.46723 | 3978 ft | 10 kts | 152° |
| 2026-05-06 06:09 | 36.47607 | 109.46785 | 3977 ft | 10 kts | 151° |
| 2026-05-06 06:09 | 36.47538 | 109.46813 | 3977 ft | 6 kts | 165° |
| 2026-05-06 06:10 | 36.47514 | 109.46851 | 3977 ft | 0 kts | 83° |
| 2026-05-06 06:10 | 36.47517 | 109.46867 | 3977 ft | 3 kts | 75° |
| 2026-05-06 06:10 | 36.47521 | 109.46883 | 3977 ft | 0 kts | 73° |